createdAt,value
2018-01-20T00:01:24.390Z,100521.67
2018-01-20T00:03:54.826Z,100520.02
2018-01-20T00:06:25.382Z,100519.17
2018-01-20T00:08:56.023Z,100518.69
2018-01-20T00:11:37.496Z,100513.13
2018-01-20T00:14:12.095Z,100516.00
2018-01-20T00:16:43.859Z,100521.48
2018-01-20T00:19:19.068Z,100517.37
2018-01-20T00:21:53.909Z,100525.08
2018-01-20T00:24:25.871Z,100529.42
2018-01-20T00:26:56.423Z,100515.45
2018-01-20T00:29:27.193Z,100521.89
2018-01-20T00:31:57.986Z,100523.08
2018-01-20T00:34:28.375Z,100513.84
2018-01-20T00:36:58.720Z,100508.59
2018-01-20T00:39:29.074Z,100514.13
2018-01-20T00:42:00.081Z,100514.61
2018-01-20T00:44:30.893Z,100517.77
2018-01-20T00:47:01.358Z,100509.55
2018-01-20T00:49:32.801Z,100515.47
2018-01-20T00:52:03.423Z,100519.48
2018-01-20T00:54:34.687Z,100518.61
2018-01-20T00:57:04.959Z,100526.85
2018-01-20T00:59:35.402Z,100511.03
2018-01-20T01:02:06.467Z,100525.64
2018-01-20T01:04:37.221Z,100522.84
2018-01-20T01:07:08.318Z,100526.27
2018-01-20T01:09:38.615Z,100526.16
2018-01-20T01:12:08.893Z,100525.26
2018-01-20T01:14:39.519Z,100527.34
2018-01-20T01:17:10.991Z,100527.03
2018-01-20T01:19:41.302Z,100528.63
2018-01-20T01:22:13.325Z,100525.89
2018-01-20T01:24:44.371Z,100529.17
2018-01-20T01:27:15.103Z,100527.20
2018-01-20T01:29:45.751Z,100524.23
2018-01-20T01:32:17.317Z,100527.21
2018-01-20T01:34:47.798Z,100517.92
2018-01-20T01:37:18.074Z,100513.98
2018-01-20T01:39:48.898Z,100508.13
2018-01-20T01:42:19.748Z,100516.70
2018-01-20T01:44:50.907Z,100511.66
2018-01-20T01:47:22.016Z,100512.05
2018-01-20T01:49:52.472Z,100517.11
2018-01-20T01:52:22.819Z,100518.48
2018-01-20T01:54:53.560Z,100520.25
2018-01-20T01:57:23.828Z,100517.48
2018-01-20T01:59:54.920Z,100520.23
2018-01-20T02:02:26.083Z,100511.20
2018-01-20T02:04:56.836Z,100511.40
2018-01-20T02:07:27.172Z,100515.68
2018-01-20T02:09:57.515Z,100511.64
2018-01-20T02:12:28.026Z,100514.39
2018-01-20T02:14:59.182Z,100514.31
2018-01-20T02:17:30.186Z,100507.12
2018-01-20T02:20:00.521Z,100512.72
2018-01-20T02:22:31.238Z,100507.43
2018-01-20T02:25:01.722Z,100511.75
2018-01-20T02:27:32.736Z,100505.77
2018-01-20T02:30:05.287Z,100493.88
2018-01-20T02:32:35.946Z,100479.76
2018-01-20T02:35:06.440Z,100499.27
2018-01-20T02:37:36.686Z,100500.66
2018-01-20T02:40:07.967Z,100484.81
2018-01-20T02:42:38.634Z,100494.03
2018-01-20T02:45:12.493Z,100494.19
2018-01-20T02:47:43.380Z,100496.68
2018-01-20T02:50:13.625Z,100493.19
2018-01-20T02:52:43.977Z,100485.58
2018-01-20T02:55:16.040Z,100482.27
2018-01-20T02:57:46.571Z,100479.23
2018-01-20T03:00:18.044Z,100472.73
2018-01-20T03:02:48.718Z,100478.86
2018-01-20T03:05:18.983Z,100473.50
2018-01-20T03:07:49.395Z,100469.30
2018-01-20T03:10:19.600Z,100466.25
2018-01-20T03:12:49.967Z,100457.75
2018-01-20T03:15:21.797Z,100448.19
2018-01-20T03:17:52.163Z,100452.94
2018-01-20T03:20:22.531Z,100449.98
2018-01-20T03:22:53.234Z,100445.55
2018-01-20T03:25:23.521Z,100442.95
2018-01-20T03:27:53.785Z,100443.74
2018-01-20T03:30:24.378Z,100433.02
2018-01-20T03:32:54.713Z,100433.13
2018-01-20T03:35:26.358Z,100429.45
2018-01-20T03:37:56.554Z,100429.54
2018-01-20T03:40:26.692Z,100424.36
2018-01-20T03:42:57.115Z,100420.42
2018-01-20T03:45:27.565Z,100419.76
2018-01-20T03:47:57.850Z,100412.66
2018-01-20T03:50:28.034Z,100412.53
2018-01-20T03:52:58.379Z,100406.50
2018-01-20T03:55:28.991Z,100408.44
2018-01-20T03:58:00.795Z,100413.13
2018-01-20T04:00:32.220Z,100403.98
2018-01-20T04:03:02.695Z,100410.22
2018-01-20T04:05:34.285Z,100404.16
2018-01-20T04:08:06.035Z,100405.34
2018-01-20T04:10:36.856Z,100405.58
2018-01-20T04:13:07.234Z,100401.37
2018-01-20T04:15:38.114Z,100390.22
2018-01-20T04:18:08.257Z,100388.64
2018-01-20T04:20:38.565Z,100391.89
2018-01-20T04:23:10.521Z,100396.11
2018-01-20T04:25:40.892Z,100389.65
2018-01-20T04:28:12.080Z,100389.17
2018-01-20T04:30:42.720Z,100379.55
2018-01-20T04:33:13.580Z,100385.89
2018-01-20T04:35:44.166Z,100377.87
2018-01-20T04:38:19.688Z,100382.06
2018-01-20T04:40:49.894Z,100387.52
2018-01-20T04:43:20.578Z,100386.55
2018-01-20T04:45:50.763Z,100381.88
2018-01-20T04:48:21.094Z,100378.87
2018-01-20T04:50:51.421Z,100381.83
2018-01-20T04:53:24.092Z,100373.54
2018-01-20T04:55:54.683Z,100380.88
2018-01-20T04:58:25.562Z,100379.74
2018-01-20T05:00:56.140Z,100379.69
2018-01-20T05:03:26.660Z,100366.46
2018-01-20T05:05:57.242Z,100371.00
2018-01-20T05:08:27.656Z,100367.84
2018-01-20T05:10:58.237Z,100368.28
2018-01-20T05:13:28.592Z,100366.38
2018-01-20T05:15:59.702Z,100361.36
2018-01-20T05:18:30.348Z,100357.11
2018-01-20T05:21:00.860Z,100356.11
2018-01-20T05:23:30.921Z,100351.33
2018-01-20T05:26:02.470Z,100347.08
2018-01-20T05:28:32.923Z,100346.31
2018-01-20T05:31:03.484Z,100338.89
2018-01-20T05:33:33.811Z,100339.66
2018-01-20T05:36:05.459Z,100326.09
2018-01-20T05:38:35.784Z,100336.70
2018-01-20T05:43:40.399Z,100336.68
2018-01-20T05:46:14.362Z,100335.56
2018-01-20T05:48:45.042Z,100340.89
2018-01-20T05:51:15.327Z,100337.58
2018-01-20T05:53:45.677Z,100332.82
2018-01-20T05:56:16.295Z,100334.63
2018-01-20T05:58:46.508Z,100337.86
2018-01-20T06:01:17.629Z,100337.17
2018-01-20T06:03:49.448Z,100333.51
2018-01-20T06:06:19.733Z,100338.47
2018-01-20T06:08:50.134Z,100327.07
2018-01-20T06:11:20.758Z,100320.68
2018-01-20T06:13:51.859Z,100324.69
2018-01-20T06:16:23.036Z,100311.81
2018-01-20T06:18:56.960Z,100314.23
2018-01-20T06:21:28.140Z,100309.83
2018-01-20T06:23:59.379Z,100316.89
2018-01-20T06:26:30.048Z,100314.30
2018-01-20T06:29:00.406Z,100312.65
2018-01-20T06:31:32.324Z,100309.17
2018-01-20T06:34:05.684Z,100304.69
2018-01-20T06:36:36.814Z,100300.66
2018-01-20T06:39:08.727Z,100306.84
2018-01-20T06:41:43.662Z,100298.69
2018-01-20T06:44:15.498Z,100297.31
2018-01-20T06:46:46.011Z,100296.67
2018-01-20T06:49:17.949Z,100292.88
2018-01-20T06:51:48.899Z,100284.36
2018-01-20T06:54:20.701Z,100293.95
2018-01-20T06:56:51.376Z,100292.39
2018-01-20T06:59:24.249Z,100288.34
2018-01-20T07:01:59.637Z,100298.30
2018-01-20T07:04:30.167Z,100292.43
2018-01-20T07:07:00.938Z,100288.77
2018-01-20T07:09:34.950Z,100284.28
2018-01-20T07:12:05.727Z,100288.83
2018-01-20T07:14:37.560Z,100284.90
2018-01-20T07:17:12.660Z,100274.11
2018-01-20T07:19:44.185Z,100275.70
2018-01-20T07:22:16.941Z,100281.95
2018-01-20T07:24:48.583Z,100274.69
2018-01-20T07:27:19.274Z,100276.31
2018-01-20T07:29:49.819Z,100274.80
2018-01-20T07:32:21.144Z,100275.13
2018-01-20T07:34:54.780Z,100280.08
2018-01-20T07:37:25.808Z,100272.91
2018-01-20T07:40:03.907Z,100266.54
2018-01-20T07:42:38.562Z,100277.41
2018-01-20T07:45:16.937Z,100252.28
2018-01-20T07:47:47.539Z,100272.67
2018-01-20T07:50:19.071Z,100267.77
2018-01-20T07:52:50.289Z,100267.52
2018-01-20T07:55:21.130Z,100272.65
2018-01-20T07:57:52.945Z,100265.30
2018-01-20T08:00:23.386Z,100259.34
2018-01-20T08:02:53.752Z,100252.52
2018-01-20T08:05:24.053Z,100251.95
2018-01-20T08:07:54.399Z,100248.05
2018-01-20T08:10:24.951Z,100238.42
2018-01-20T08:12:55.272Z,100252.28
2018-01-20T08:15:25.748Z,100241.86
2018-01-20T08:17:57.191Z,100238.16
2018-01-20T08:20:28.874Z,100238.55
2018-01-20T08:22:59.696Z,100242.09
2018-01-20T08:25:29.994Z,100238.22
2018-01-20T08:28:00.378Z,100238.41
2018-01-20T08:30:32.890Z,100218.39
2018-01-20T08:33:05.948Z,100230.61
2018-01-20T08:35:41.054Z,100230.83
2018-01-20T08:38:11.888Z,100233.87
2018-01-20T08:40:42.700Z,100226.77
2018-01-20T08:43:30.954Z,100222.31
2018-01-20T08:46:09.830Z,100205.16
2018-01-20T08:48:45.897Z,100214.38
2018-01-20T08:51:25.810Z,100205.14
2018-01-20T08:53:56.746Z,100207.78
2018-01-20T08:56:29.644Z,100194.52
2018-01-20T08:59:18.032Z,100192.66
2018-01-20T09:01:52.426Z,100193.51
2018-01-20T09:04:35.672Z,100197.30
2018-01-20T09:07:09.306Z,100190.09
2018-01-20T09:09:40.767Z,100194.73
2018-01-20T09:12:12.238Z,100190.51
2018-01-20T09:14:45.531Z,100184.52
2018-01-20T09:17:20.450Z,100175.91
2018-01-20T09:19:52.388Z,100161.17
2018-01-20T09:22:27.521Z,100164.50
2018-01-20T09:24:58.288Z,100157.42
2018-01-20T09:27:30.123Z,100146.94
2018-01-20T09:30:08.862Z,100155.66
2018-01-20T09:32:40.164Z,100158.05
2018-01-20T09:35:11.991Z,100153.86
2018-01-20T09:37:42.978Z,100149.36
2018-01-20T09:40:14.096Z,100145.50
2018-01-20T09:42:44.923Z,100142.55
2018-01-20T09:45:18.844Z,100139.39
2018-01-20T09:47:49.768Z,100088.41
2018-01-20T09:50:21.844Z,100130.64
2018-01-20T09:52:53.189Z,100127.23
2018-01-20T09:55:26.425Z,100108.89
2018-01-20T09:57:57.193Z,100116.32
2018-01-20T10:00:29.656Z,100097.94
2018-01-20T10:03:00.585Z,100110.72
2018-01-20T10:05:31.141Z,100103.16
2018-01-20T10:08:03.204Z,100102.98
2018-01-20T10:10:34.575Z,100093.27
2018-01-20T10:13:09.855Z,100087.94
2018-01-20T10:15:41.673Z,100086.84
2018-01-20T10:18:21.305Z,100079.13
2018-01-20T10:20:52.803Z,100074.14
2018-01-20T10:23:25.184Z,100070.64
2018-01-20T10:25:59.844Z,100063.16
2018-01-20T10:28:30.924Z,100060.96
2018-01-20T10:31:02.761Z,100062.38
2018-01-20T10:33:36.060Z,100058.94
2018-01-20T10:36:09.294Z,100048.53
2018-01-20T10:38:40.597Z,100047.42
2018-01-20T10:41:14.783Z,100037.40
2018-01-20T10:43:47.764Z,100036.19
2018-01-20T10:46:21.488Z,100023.95
2018-01-20T10:48:52.137Z,100029.77
2018-01-20T10:51:24.687Z,100021.67
2018-01-20T10:53:56.856Z,100022.41
2018-01-20T10:56:27.496Z,100022.05
2018-01-20T10:58:58.180Z,100018.28
2018-01-20T11:01:29.544Z,100014.16
2018-01-20T11:04:00.473Z,100011.78
2018-01-20T11:06:31.554Z,100008.87
2018-01-20T11:09:02.255Z,99984.88
2018-01-20T11:11:33.055Z,99999.38
2018-01-20T11:14:06.203Z,99993.95
2018-01-20T11:16:37.809Z,99976.09
2018-01-20T11:19:26.583Z,99981.26
2018-01-20T11:22:01.788Z,99976.41
2018-01-20T11:24:33.542Z,99974.62
2018-01-20T11:27:04.634Z,99961.63
2018-01-20T11:29:35.401Z,99954.64
2018-01-20T11:32:09.027Z,99966.15
2018-01-20T11:35:12.923Z,99949.75
2018-01-20T11:37:47.501Z,99938.74
2018-01-20T11:40:18.454Z,99947.91
2018-01-20T11:42:50.365Z,99919.13
2018-01-20T11:45:21.355Z,99929.91
2018-01-20T11:47:53.243Z,99920.05
2018-01-20T11:50:26.774Z,99906.74
2018-01-20T11:52:59.053Z,99911.38
2018-01-20T11:55:33.561Z,99915.98
2018-01-20T11:58:04.961Z,99895.67
2018-01-20T12:00:41.136Z,99901.18
2018-01-20T12:05:55.917Z,99882.48
2018-01-20T12:08:28.310Z,99858.13
2018-01-20T12:10:59.730Z,99861.70
2018-01-20T12:13:31.508Z,99861.66
2018-01-20T12:16:10.477Z,99851.63
2018-01-20T12:18:45.016Z,99856.47
2018-01-20T12:21:16.794Z,99832.66
2018-01-20T12:23:48.405Z,99830.91
2018-01-20T12:26:19.949Z,99831.22
2018-01-20T12:28:51.359Z,99818.51
2018-01-20T12:31:22.454Z,99818.23
2018-01-20T12:33:54.036Z,99807.16
2018-01-20T12:36:24.869Z,99791.34
2018-01-20T12:38:55.524Z,99780.61
2018-01-20T12:41:27.406Z,99781.88
2018-01-20T12:44:04.453Z,99780.20
2018-01-20T12:46:38.320Z,99769.08
2018-01-20T12:49:27.877Z,99771.79
2018-01-20T12:51:59.898Z,99765.52
2018-01-20T12:54:31.271Z,99743.39
2018-01-20T12:57:02.532Z,99753.12
2018-01-20T12:59:33.486Z,99746.19
2018-01-20T13:02:05.296Z,99739.91
2018-01-20T13:04:36.712Z,99731.14
2018-01-20T13:07:10.222Z,99727.16
2018-01-20T13:09:43.775Z,99713.54
2018-01-20T13:12:22.359Z,99708.91
2018-01-20T13:14:53.421Z,99688.55
2018-01-20T13:17:27.212Z,99694.41
2018-01-20T13:19:58.023Z,99689.38
2018-01-20T13:22:30.474Z,99680.91
2018-01-20T13:25:02.444Z,99679.28
2018-01-20T13:27:35.115Z,99675.07
2018-01-20T13:30:08.300Z,99677.20
2018-01-20T13:32:39.283Z,99670.47
2018-01-20T13:35:10.557Z,99658.81
2018-01-20T13:37:41.168Z,99654.32
2018-01-20T13:40:13.022Z,99651.13
2018-01-20T13:42:44.608Z,99657.78
2018-01-20T13:45:17.438Z,99652.19
2018-01-20T13:47:50.812Z,99646.83
2018-01-20T13:50:22.725Z,99641.51
2018-01-20T13:52:55.287Z,99650.30
2018-01-20T13:55:29.395Z,99635.87
2018-01-20T13:58:02.037Z,99641.11
2018-01-20T14:03:01.561Z,99640.22
2018-01-20T14:05:33.789Z,99629.98
2018-01-20T14:08:06.291Z,99623.91
2018-01-20T14:10:39.338Z,99623.03
2018-01-20T14:13:23.320Z,99609.55
2018-01-20T14:15:55.388Z,99606.38
2018-01-20T14:18:27.235Z,99612.58
2018-01-20T14:20:59.563Z,99607.16
2018-01-20T14:23:32.399Z,99604.78
2018-01-20T14:26:03.269Z,99609.86
2018-01-20T14:28:35.353Z,99599.42
2018-01-20T14:31:07.005Z,99590.10
2018-01-20T14:33:40.791Z,99591.00
2018-01-20T14:36:13.312Z,99595.45
2018-01-20T14:38:49.790Z,99590.22
2018-01-20T14:41:25.326Z,99586.97
2018-01-20T14:43:57.595Z,99570.88
2018-01-20T14:46:31.678Z,99575.08
2018-01-20T14:49:05.028Z,99577.08
2018-01-20T14:51:37.324Z,99577.98
2018-01-20T14:54:10.829Z,99560.86
2018-01-20T14:56:43.632Z,99576.52
2018-01-20T14:59:18.525Z,99577.62
2018-01-20T15:01:51.571Z,99575.34
2018-01-20T15:04:23.778Z,99571.88
2018-01-20T15:06:57.763Z,99570.11
2018-01-20T15:09:36.294Z,99577.14
2018-01-20T15:12:10.615Z,99574.17
2018-01-20T15:14:43.493Z,99571.95
2018-01-20T15:17:21.257Z,99565.89
2018-01-20T15:19:55.994Z,99562.83
2018-01-20T15:22:28.420Z,99551.06
2018-01-20T15:25:02.460Z,99549.61
2018-01-20T15:27:36.810Z,99548.16
2018-01-20T15:30:21.145Z,99540.84
2018-01-20T15:32:55.733Z,99539.88
2018-01-20T15:35:27.664Z,99539.95
2018-01-20T15:38:01.641Z,99531.01
2018-01-20T15:40:35.751Z,99531.97
2018-01-20T15:43:16.712Z,99521.98
2018-01-20T15:45:54.048Z,99521.78
2018-01-20T15:48:28.548Z,99524.38
2018-01-20T15:51:05.353Z,99520.63
2018-01-20T15:53:41.701Z,99512.56
2018-01-20T15:56:15.123Z,99519.52
2018-01-20T15:58:49.844Z,99520.56
2018-01-20T16:01:25.117Z,99505.28
2018-01-20T16:04:01.430Z,99508.63
2018-01-20T16:06:35.450Z,99502.48
2018-01-20T16:09:11.503Z,99498.11
2018-01-20T16:11:44.468Z,99505.52
2018-01-20T16:14:19.094Z,99492.88
2018-01-20T16:16:53.444Z,99497.49
2018-01-20T16:19:30.034Z,99482.54
2018-01-20T16:22:03.668Z,99491.11
2018-01-20T16:24:39.371Z,99484.09
2018-01-20T16:27:12.236Z,99489.28
2018-01-20T16:29:46.740Z,99499.91
2018-01-20T16:32:22.271Z,99499.30
2018-01-20T16:34:55.899Z,99499.66
2018-01-20T16:37:27.198Z,99502.71
2018-01-20T16:39:58.741Z,99508.91
2018-01-20T16:42:30.119Z,99520.95
2018-01-20T16:45:05.324Z,99522.46
2018-01-20T16:47:37.652Z,99515.16
2018-01-20T16:50:09.840Z,99514.59
2018-01-20T16:52:41.943Z,99525.17
2018-01-20T16:55:14.961Z,99519.97
2018-01-20T16:57:48.429Z,99524.20
2018-01-20T17:00:24.406Z,99517.92
2018-01-20T17:02:56.957Z,99532.20
2018-01-20T17:05:28.603Z,99523.53
2018-01-20T17:08:02.214Z,99507.18
2018-01-20T17:10:36.302Z,99511.70
2018-01-20T17:13:12.010Z,99508.83
2018-01-20T17:15:45.511Z,99498.00
2018-01-20T17:18:18.230Z,99481.99
2018-01-20T17:20:49.672Z,99488.41
2018-01-20T17:23:23.271Z,99494.30
2018-01-20T17:26:06.677Z,99499.65
2018-01-20T17:28:45.436Z,99495.88
2018-01-20T17:31:17.840Z,99493.88
2018-01-20T17:33:49.719Z,99505.36
2018-01-20T17:36:24.893Z,99491.11
2018-01-20T17:38:58.845Z,99502.89
2018-01-20T17:41:31.438Z,99516.05
2018-01-20T17:44:07.102Z,99515.64
2018-01-20T17:46:41.889Z,99512.22
2018-01-20T17:49:21.449Z,99519.66
2018-01-20T17:51:56.804Z,99515.02
2018-01-20T17:54:38.284Z,99521.50
2018-01-20T17:57:12.258Z,99520.66
2018-01-20T17:59:45.854Z,99521.63
2018-01-20T18:02:21.520Z,99515.45
2018-01-20T18:04:57.333Z,99519.22
2018-01-20T18:07:33.422Z,99528.95
2018-01-20T18:10:09.283Z,99527.47
2018-01-20T18:12:42.692Z,99530.75
2018-01-20T18:15:22.374Z,99528.95
2018-01-20T18:17:55.838Z,99525.30
2018-01-20T18:20:31.529Z,99536.52
2018-01-20T18:23:06.373Z,99529.75
2018-01-20T18:25:43.355Z,99522.66
2018-01-20T18:28:17.277Z,99529.80
2018-01-20T18:30:51.478Z,99531.76
2018-01-20T18:33:27.054Z,99534.30
2018-01-20T18:36:04.929Z,99537.36
2018-01-20T18:38:42.881Z,99538.39
2018-01-20T18:41:29.211Z,99532.55
2018-01-20T18:44:08.652Z,99536.87
2018-01-20T18:46:46.037Z,99538.25
2018-01-20T18:49:22.444Z,99541.95
2018-01-20T18:51:57.993Z,99540.33
2018-01-20T18:54:32.939Z,99552.32
2018-01-20T18:57:12.824Z,99550.07
2018-01-20T18:59:51.722Z,99551.34
2018-01-20T19:02:30.062Z,99550.44
2018-01-20T19:05:05.767Z,99560.89
2018-01-20T19:07:42.916Z,99559.69
2018-01-20T19:10:20.593Z,99567.44
2018-01-20T19:12:58.469Z,99567.00
2018-01-20T19:15:36.945Z,99572.72
2018-01-20T19:18:16.466Z,99577.59
2018-01-20T19:20:56.042Z,99579.03
2018-01-20T19:23:34.031Z,99580.70
2018-01-20T19:26:10.781Z,99580.56
2018-01-20T19:28:47.225Z,99590.92
2018-01-20T19:31:23.103Z,99587.66
2018-01-20T19:33:58.198Z,99595.61
2018-01-20T19:36:34.121Z,99602.48
2018-01-20T19:39:11.715Z,99606.55
2018-01-20T19:41:54.217Z,99608.00
2018-01-20T19:44:29.101Z,99615.44
2018-01-20T19:47:10.466Z,99612.37
2018-01-20T19:49:47.382Z,99625.10
2018-01-20T19:52:30.425Z,99631.53
2018-01-20T19:55:07.312Z,99641.20
2018-01-20T19:57:44.392Z,99640.86
2018-01-20T20:00:30.946Z,99638.76
2018-01-20T20:03:11.453Z,99648.99
2018-01-20T20:08:50.173Z,99648.98
2018-01-20T20:11:24.702Z,99642.79
2018-01-20T20:14:00.542Z,99646.08
2018-01-20T20:16:36.244Z,99647.24
2018-01-20T20:19:20.701Z,99659.37
2018-01-20T20:21:57.314Z,99657.63
2018-01-20T20:24:36.712Z,99673.28
2018-01-20T20:27:28.532Z,99668.09
2018-01-20T20:30:08.827Z,99680.73
2018-01-20T20:35:55.750Z,99684.36
2018-01-20T20:38:32.344Z,99678.70
2018-01-20T20:41:11.506Z,99679.61
2018-01-20T20:43:47.428Z,99683.98
2018-01-20T20:46:26.183Z,99692.04
2018-01-20T20:49:06.322Z,99698.09
2018-01-20T20:51:45.429Z,99684.94
2018-01-20T20:54:21.594Z,99688.55
2018-01-20T20:57:00.275Z,99693.20
2018-01-20T20:59:36.044Z,99688.27
2018-01-20T21:02:17.496Z,99700.83
2018-01-20T21:04:54.468Z,99699.50
2018-01-20T21:07:36.983Z,99698.34
2018-01-20T21:10:16.101Z,99706.67
2018-01-20T21:12:53.887Z,99699.53
2018-01-20T21:15:32.071Z,99704.37
2018-01-20T21:18:09.211Z,99703.09
2018-01-20T21:20:46.249Z,99711.98
2018-01-20T21:23:28.334Z,99726.17
2018-01-20T21:26:04.527Z,99725.13
2018-01-20T21:28:38.453Z,99722.55
2018-01-20T21:31:14.325Z,99735.02
2018-01-20T21:34:02.072Z,99743.81
2018-01-20T21:36:38.714Z,99742.73
2018-01-20T21:39:12.440Z,99751.45
2018-01-20T21:41:50.770Z,99755.98
2018-01-20T21:44:25.759Z,99760.50
2018-01-20T21:47:01.624Z,99761.64
2018-01-20T21:49:34.518Z,99773.41
2018-01-20T21:52:09.257Z,99776.73
2018-01-20T21:54:42.132Z,99784.31
2018-01-20T21:57:19.105Z,99780.84
2018-01-20T21:59:51.234Z,99779.33
2018-01-20T22:02:22.719Z,99788.52
2018-01-20T22:04:54.287Z,99805.44
2018-01-20T22:07:27.046Z,99810.28
2018-01-20T22:09:58.300Z,99810.63
2018-01-20T22:12:29.521Z,99807.95
2018-01-20T22:15:05.777Z,99812.80
2018-01-20T22:17:37.621Z,99816.89
2018-01-20T22:20:09.228Z,99822.02
2018-01-20T22:22:43.952Z,99835.83
2018-01-20T22:25:16.951Z,99843.23
2018-01-20T22:27:54.665Z,99844.18
2018-01-20T22:30:27.594Z,99840.95
2018-01-20T22:32:59.771Z,99847.05
2018-01-20T22:35:33.361Z,99850.99
2018-01-20T22:38:05.575Z,99861.78
2018-01-20T22:40:37.554Z,99861.11
2018-01-20T22:43:11.804Z,99870.85
2018-01-20T22:45:43.596Z,99866.55
2018-01-20T22:48:16.534Z,99874.58
2018-01-20T22:50:48.125Z,99875.38
2018-01-20T22:53:19.754Z,99887.23
2018-01-20T22:55:50.752Z,99887.30
2018-01-20T22:58:21.562Z,99887.19
2018-01-20T23:00:53.242Z,99886.34
2018-01-20T23:03:24.966Z,99893.38
2018-01-20T23:05:56.932Z,99899.29
2018-01-20T23:08:28.122Z,99905.22
2018-01-20T23:11:01.242Z,99916.36
2018-01-20T23:13:32.411Z,99910.66
2018-01-20T23:16:06.333Z,99927.25
2018-01-20T23:18:39.004Z,99935.09
2018-01-20T23:21:09.696Z,99933.45
2018-01-20T23:23:41.613Z,99940.84
2018-01-20T23:26:12.580Z,99948.05
2018-01-20T23:28:43.519Z,99955.21
2018-01-20T23:31:17.481Z,99955.92
2018-01-20T23:33:50.645Z,99956.34
2018-01-20T23:36:23.673Z,99972.71
2018-01-20T23:38:55.884Z,99969.52
2018-01-20T23:41:27.398Z,99980.22
2018-01-20T23:43:59.502Z,99993.54
2018-01-20T23:46:32.820Z,99997.09
2018-01-20T23:49:04.673Z,100007.14
2018-01-20T23:51:35.635Z,100015.73
2018-01-20T23:54:06.485Z,100007.09
2018-01-20T23:56:37.196Z,100025.52
2018-01-20T23:59:09.199Z,100030.91
